sensor_id;sensor_type;location;lat;lon;timestamp;P1;durP1;ratioP1;P2;durP2;ratioP2
57824;SDS011;43912;44.188;21.094;2022-11-20T00:00:50;16.42;;;11.95;;
57824;SDS011;43912;44.188;21.094;2022-11-20T00:03:17;19.83;;;13.15;;
57824;SDS011;43912;44.188;21.094;2022-11-20T00:05:43;17.65;;;13.27;;
57824;SDS011;43912;44.188;21.094;2022-11-20T00:08:09;20.58;;;16.33;;
57824;SDS011;43912;44.188;21.094;2022-11-20T00:10:36;17.50;;;15.43;;
57824;SDS011;43912;44.188;21.094;2022-11-20T00:13:02;19.35;;;16.55;;
57824;SDS011;43912;44.188;21.094;2022-11-20T00:15:28;16.98;;;15.07;;
57824;SDS011;43912;44.188;21.094;2022-11-20T00:17:54;19.90;;;17.35;;
57824;SDS011;43912;44.188;21.094;2022-11-20T00:20:21;18.63;;;16.63;;
57824;SDS011;43912;44.188;21.094;2022-11-20T00:22:47;17.60;;;15.70;;
57824;SDS011;43912;44.188;21.094;2022-11-20T00:25:13;18.48;;;16.30;;
57824;SDS011;43912;44.188;21.094;2022-11-20T00:27:39;17.10;;;14.65;;
57824;SDS011;43912;44.188;21.094;2022-11-20T00:30:05;16.13;;;14.07;;
57824;SDS011;43912;44.188;21.094;2022-11-20T00:32:31;14.68;;;12.93;;
57824;SDS011;43912;44.188;21.094;2022-11-20T00:34:57;16.25;;;13.25;;
57824;SDS011;43912;44.188;21.094;2022-11-20T00:37:24;16.92;;;13.82;;
57824;SDS011;43912;44.188;21.094;2022-11-20T00:39:50;13.98;;;11.82;;
57824;SDS011;43912;44.188;21.094;2022-11-20T00:42:16;15.48;;;12.15;;
57824;SDS011;43912;44.188;21.094;2022-11-20T00:44:42;14.35;;;12.40;;
57824;SDS011;43912;44.188;21.094;2022-11-20T00:47:08;12.32;;;10.80;;
57824;SDS011;43912;44.188;21.094;2022-11-20T00:49:34;13.55;;;10.68;;
57824;SDS011;43912;44.188;21.094;2022-11-20T00:52:00;14.23;;;12.65;;
57824;SDS011;43912;44.188;21.094;2022-11-20T00:54:26;12.27;;;9.73;;
57824;SDS011;43912;44.188;21.094;2022-11-20T00:56:53;14.80;;;12.98;;
57824;SDS011;43912;44.188;21.094;2022-11-20T00:59:19;18.30;;;12.77;;
57824;SDS011;43912;44.188;21.094;2022-11-20T01:01:45;15.20;;;13.57;;
57824;SDS011;43912;44.188;21.094;2022-11-20T01:04:11;18.42;;;14.05;;
57824;SDS011;43912;44.188;21.094;2022-11-20T01:06:37;18.98;;;15.82;;
57824;SDS011;43912;44.188;21.094;2022-11-20T01:09:07;17.17;;;15.02;;
57824;SDS011;43912;44.188;21.094;2022-11-20T01:11:35;17.92;;;16.00;;
57824;SDS011;43912;44.188;21.094;2022-11-20T01:14:01;15.52;;;13.75;;
57824;SDS011;43912;44.188;21.094;2022-11-20T01:16:29;16.25;;;13.18;;
57824;SDS011;43912;44.188;21.094;2022-11-20T01:18:57;15.18;;;12.68;;
57824;SDS011;43912;44.188;21.094;2022-11-20T01:21:27;30.58;;;27.67;;
57824;SDS011;43912;44.188;21.094;2022-11-20T01:23:53;30.90;;;27.65;;
57824;SDS011;43912;44.188;21.094;2022-11-20T01:26:23;19.63;;;16.35;;
57824;SDS011;43912;44.188;21.094;2022-11-20T01:28:51;22.00;;;19.00;;
57824;SDS011;43912;44.188;21.094;2022-11-20T01:31:27;27.65;;;24.77;;
57824;SDS011;43912;44.188;21.094;2022-11-20T01:33:54;36.05;;;32.33;;
57824;SDS011;43912;44.188;21.094;2022-11-20T01:36:22;34.25;;;26.88;;
57824;SDS011;43912;44.188;21.094;2022-11-20T01:38:50;26.30;;;20.27;;
57824;SDS011;43912;44.188;21.094;2022-11-20T01:41:17;30.58;;;23.90;;
57824;SDS011;43912;44.188;21.094;2022-11-20T01:44:03;28.88;;;20.20;;
57824;SDS011;43912;44.188;21.094;2022-11-20T01:46:30;32.50;;;27.70;;
57824;SDS011;43912;44.188;21.094;2022-11-20T01:51:28;20.08;;;14.52;;
57824;SDS011;43912;44.188;21.094;2022-11-20T01:53:55;21.77;;;19.63;;
57824;SDS011;43912;44.188;21.094;2022-11-20T01:56:23;14.68;;;11.45;;
57824;SDS011;43912;44.188;21.094;2022-11-20T01:58:53;16.48;;;13.65;;
57824;SDS011;43912;44.188;21.094;2022-11-20T02:01:20;16.20;;;13.70;;
57824;SDS011;43912;44.188;21.094;2022-11-20T02:03:47;16.75;;;13.25;;
57824;SDS011;43912;44.188;21.094;2022-11-20T02:06:22;14.55;;;10.82;;
57824;SDS011;43912;44.188;21.094;2022-11-20T02:08:49;13.38;;;9.77;;
57824;SDS011;43912;44.188;21.094;2022-11-20T02:11:16;10.73;;;6.05;;
57824;SDS011;43912;44.188;21.094;2022-11-20T02:13:42;11.18;;;6.90;;
57824;SDS011;43912;44.188;21.094;2022-11-20T02:16:09;11.40;;;8.02;;
57824;SDS011;43912;44.188;21.094;2022-11-20T02:18:36;34.92;;;31.40;;
57824;SDS011;43912;44.188;21.094;2022-11-20T02:21:05;23.77;;;20.08;;
57824;SDS011;43912;44.188;21.094;2022-11-20T02:26:01;13.15;;;6.40;;
57824;SDS011;43912;44.188;21.094;2022-11-20T02:28:29;8.60;;;5.53;;
57824;SDS011;43912;44.188;21.094;2022-11-20T02:30:55;9.98;;;6.75;;
57824;SDS011;43912;44.188;21.094;2022-11-20T02:33:21;13.93;;;10.65;;
57824;SDS011;43912;44.188;21.094;2022-11-20T02:35:47;14.98;;;11.88;;
57824;SDS011;43912;44.188;21.094;2022-11-20T02:38:14;20.83;;;18.58;;
57824;SDS011;43912;44.188;21.094;2022-11-20T02:40:40;22.83;;;20.58;;
57824;SDS011;43912;44.188;21.094;2022-11-20T02:43:06;20.52;;;17.58;;
57824;SDS011;43912;44.188;21.094;2022-11-20T02:45:32;20.08;;;16.98;;
57824;SDS011;43912;44.188;21.094;2022-11-20T02:47:58;10.55;;;6.43;;
57824;SDS011;43912;44.188;21.094;2022-11-20T02:50:25;9.68;;;6.13;;
57824;SDS011;43912;44.188;21.094;2022-11-20T02:52:51;8.70;;;4.53;;
57824;SDS011;43912;44.188;21.094;2022-11-20T02:55:17;8.95;;;5.07;;
57824;SDS011;43912;44.188;21.094;2022-11-20T02:57:43;8.05;;;4.22;;
57824;SDS011;43912;44.188;21.094;2022-11-20T03:00:09;8.07;;;4.60;;
57824;SDS011;43912;44.188;21.094;2022-11-20T03:02:35;22.90;;;20.45;;
57824;SDS011;43912;44.188;21.094;2022-11-20T03:05:02;19.92;;;16.50;;
57824;SDS011;43912;44.188;21.094;2022-11-20T03:07:28;20.75;;;18.88;;
57824;SDS011;43912;44.188;21.094;2022-11-20T03:09:54;32.78;;;29.98;;
57824;SDS011;43912;44.188;21.094;2022-11-20T03:12:20;36.95;;;33.30;;
57824;SDS011;43912;44.188;21.094;2022-11-20T03:14:46;33.85;;;30.80;;
57824;SDS011;43912;44.188;21.094;2022-11-20T03:17:12;39.47;;;35.78;;
57824;SDS011;43912;44.188;21.094;2022-11-20T03:19:38;39.35;;;35.53;;
57824;SDS011;43912;44.188;21.094;2022-11-20T03:22:04;28.83;;;26.42;;
57824;SDS011;43912;44.188;21.094;2022-11-20T03:24:30;30.55;;;27.67;;
57824;SDS011;43912;44.188;21.094;2022-11-20T03:26:56;32.67;;;29.98;;
57824;SDS011;43912;44.188;21.094;2022-11-20T03:29:22;30.92;;;27.98;;
57824;SDS011;43912;44.188;21.094;2022-11-20T03:31:48;22.05;;;19.95;;
57824;SDS011;43912;44.188;21.094;2022-11-20T03:34:14;22.02;;;19.83;;
57824;SDS011;43912;44.188;21.094;2022-11-20T03:36:41;15.48;;;13.88;;
57824;SDS011;43912;44.188;21.094;2022-11-20T03:39:08;12.90;;;11.60;;
57824;SDS011;43912;44.188;21.094;2022-11-20T03:41:38;13.55;;;11.38;;
57824;SDS011;43912;44.188;21.094;2022-11-20T03:44:06;16.50;;;12.18;;
57824;SDS011;43912;44.188;21.094;2022-11-20T03:46:33;20.77;;;18.75;;
57824;SDS011;43912;44.188;21.094;2022-11-20T03:48:59;29.15;;;26.25;;
57824;SDS011;43912;44.188;21.094;2022-11-20T03:51:30;40.17;;;35.95;;
57824;SDS011;43912;44.188;21.094;2022-11-20T03:53:57;43.42;;;38.85;;
57824;SDS011;43912;44.188;21.094;2022-11-20T03:56:25;23.38;;;21.17;;
57824;SDS011;43912;44.188;21.094;2022-11-20T03:58:51;10.38;;;8.05;;
57824;SDS011;43912;44.188;21.094;2022-11-20T04:01:18;9.15;;;6.85;;
57824;SDS011;43912;44.188;21.094;2022-11-20T04:03:45;9.32;;;5.95;;
57824;SDS011;43912;44.188;21.094;2022-11-20T04:06:12;12.25;;;6.13;;
57824;SDS011;43912;44.188;21.094;2022-11-20T04:08:39;9.82;;;6.35;;
57824;SDS011;43912;44.188;21.094;2022-11-20T04:11:12;9.98;;;5.10;;
57824;SDS011;43912;44.188;21.094;2022-11-20T04:13:38;9.90;;;6.45;;
57824;SDS011;43912;44.188;21.094;2022-11-20T04:16:05;12.77;;;11.48;;
57824;SDS011;43912;44.188;21.094;2022-11-20T04:18:32;10.80;;;8.40;;
57824;SDS011;43912;44.188;21.094;2022-11-20T04:20:58;20.13;;;16.25;;
57824;SDS011;43912;44.188;21.094;2022-11-20T04:23:24;18.60;;;15.23;;
57824;SDS011;43912;44.188;21.094;2022-11-20T04:25:51;24.95;;;22.65;;
57824;SDS011;43912;44.188;21.094;2022-11-20T04:28:17;29.48;;;26.38;;
57824;SDS011;43912;44.188;21.094;2022-11-20T04:30:43;30.02;;;26.75;;
57824;SDS011;43912;44.188;21.094;2022-11-20T04:33:09;15.32;;;13.32;;
57824;SDS011;43912;44.188;21.094;2022-11-20T04:35:36;12.02;;;8.48;;
57824;SDS011;43912;44.188;21.094;2022-11-20T04:38:02;9.00;;;6.18;;
57824;SDS011;43912;44.188;21.094;2022-11-20T04:40:28;19.00;;;14.43;;
57824;SDS011;43912;44.188;21.094;2022-11-20T04:42:54;50.50;;;44.97;;
57824;SDS011;43912;44.188;21.094;2022-11-20T04:45:21;16.58;;;10.07;;
57824;SDS011;43912;44.188;21.094;2022-11-20T04:47:47;9.93;;;7.50;;
57824;SDS011;43912;44.188;21.094;2022-11-20T04:50:13;11.45;;;8.38;;
57824;SDS011;43912;44.188;21.094;2022-11-20T04:52:39;11.88;;;10.05;;
57824;SDS011;43912;44.188;21.094;2022-11-20T04:55:06;16.15;;;14.55;;
57824;SDS011;43912;44.188;21.094;2022-11-20T04:57:32;8.57;;;6.22;;
57824;SDS011;43912;44.188;21.094;2022-11-20T04:59:58;8.77;;;4.03;;
57824;SDS011;43912;44.188;21.094;2022-11-20T05:02:24;8.98;;;5.35;;
57824;SDS011;43912;44.188;21.094;2022-11-20T05:04:50;12.10;;;7.38;;
57824;SDS011;43912;44.188;21.094;2022-11-20T05:07:16;12.23;;;7.55;;
57824;SDS011;43912;44.188;21.094;2022-11-20T05:09:42;11.38;;;7.50;;
57824;SDS011;43912;44.188;21.094;2022-11-20T05:12:08;14.02;;;11.20;;
57824;SDS011;43912;44.188;21.094;2022-11-20T05:14:35;19.23;;;14.15;;
57824;SDS011;43912;44.188;21.094;2022-11-20T05:17:01;30.17;;;27.20;;
57824;SDS011;43912;44.188;21.094;2022-11-20T05:19:27;24.92;;;22.33;;
57824;SDS011;43912;44.188;21.094;2022-11-20T05:21:53;15.43;;;11.48;;
57824;SDS011;43912;44.188;21.094;2022-11-20T05:24:19;15.57;;;11.63;;
57824;SDS011;43912;44.188;21.094;2022-11-20T05:26:45;27.52;;;21.42;;
57824;SDS011;43912;44.188;21.094;2022-11-20T05:29:11;11.20;;;6.75;;
57824;SDS011;43912;44.188;21.094;2022-11-20T05:31:38;10.52;;;7.22;;
57824;SDS011;43912;44.188;21.094;2022-11-20T05:34:05;7.53;;;3.80;;
57824;SDS011;43912;44.188;21.094;2022-11-20T05:36:31;9.43;;;4.95;;
57824;SDS011;43912;44.188;21.094;2022-11-20T05:38:57;17.20;;;13.07;;
57824;SDS011;43912;44.188;21.094;2022-11-20T05:41:23;7.05;;;3.88;;
57824;SDS011;43912;44.188;21.094;2022-11-20T05:43:50;8.95;;;4.80;;
57824;SDS011;43912;44.188;21.094;2022-11-20T05:46:17;10.15;;;5.53;;
57824;SDS011;43912;44.188;21.094;2022-11-20T05:48:44;9.68;;;6.95;;
57824;SDS011;43912;44.188;21.094;2022-11-20T05:51:11;12.38;;;7.43;;
57824;SDS011;43912;44.188;21.094;2022-11-20T05:53:37;13.63;;;7.20;;
57824;SDS011;43912;44.188;21.094;2022-11-20T05:56:04;10.43;;;6.03;;
57824;SDS011;43912;44.188;21.094;2022-11-20T05:58:32;14.88;;;9.30;;
57824;SDS011;43912;44.188;21.094;2022-11-20T06:01:08;21.83;;;16.08;;
57824;SDS011;43912;44.188;21.094;2022-11-20T06:03:35;18.90;;;14.57;;
57824;SDS011;43912;44.188;21.094;2022-11-20T06:06:01;12.18;;;8.93;;
57824;SDS011;43912;44.188;21.094;2022-11-20T06:08:27;46.50;;;35.85;;
57824;SDS011;43912;44.188;21.094;2022-11-20T06:10:54;35.72;;;30.85;;
57824;SDS011;43912;44.188;21.094;2022-11-20T06:13:20;33.83;;;30.23;;
57824;SDS011;43912;44.188;21.094;2022-11-20T06:15:50;32.78;;;29.27;;
57824;SDS011;43912;44.188;21.094;2022-11-20T06:18:16;32.33;;;28.80;;
57824;SDS011;43912;44.188;21.094;2022-11-20T06:20:42;29.95;;;26.95;;
57824;SDS011;43912;44.188;21.094;2022-11-20T06:23:08;31.25;;;27.77;;
57824;SDS011;43912;44.188;21.094;2022-11-20T06:25:37;40.17;;;35.97;;
57824;SDS011;43912;44.188;21.094;2022-11-20T06:28:03;37.83;;;32.33;;
57824;SDS011;43912;44.188;21.094;2022-11-20T06:30:29;34.58;;;30.75;;
57824;SDS011;43912;44.188;21.094;2022-11-20T06:32:55;34.17;;;30.67;;
57824;SDS011;43912;44.188;21.094;2022-11-20T06:35:21;26.02;;;23.27;;
57824;SDS011;43912;44.188;21.094;2022-11-20T06:37:47;29.60;;;26.50;;
57824;SDS011;43912;44.188;21.094;2022-11-20T06:40:13;29.23;;;23.75;;
57824;SDS011;43912;44.188;21.094;2022-11-20T06:42:40;28.77;;;25.90;;
57824;SDS011;43912;44.188;21.094;2022-11-20T06:45:06;26.17;;;23.58;;
57824;SDS011;43912;44.188;21.094;2022-11-20T06:47:32;21.27;;;17.52;;
57824;SDS011;43912;44.188;21.094;2022-11-20T06:49:58;11.43;;;9.20;;
57824;SDS011;43912;44.188;21.094;2022-11-20T06:52:24;12.02;;;9.63;;
57824;SDS011;43912;44.188;21.094;2022-11-20T06:54:50;12.50;;;9.90;;
57824;SDS011;43912;44.188;21.094;2022-11-20T06:57:16;14.10;;;11.23;;
57824;SDS011;43912;44.188;21.094;2022-11-20T06:59:42;13.63;;;11.48;;
57824;SDS011;43912;44.188;21.094;2022-11-20T07:02:12;17.90;;;15.13;;
57824;SDS011;43912;44.188;21.094;2022-11-20T07:04:38;21.77;;;19.38;;
57824;SDS011;43912;44.188;21.094;2022-11-20T07:07:04;19.27;;;16.42;;
57824;SDS011;43912;44.188;21.094;2022-11-20T07:09:31;23.00;;;17.85;;
57824;SDS011;43912;44.188;21.094;2022-11-20T07:11:58;16.80;;;13.90;;
57824;SDS011;43912;44.188;21.094;2022-11-20T07:14:25;20.10;;;15.73;;
57824;SDS011;43912;44.188;21.094;2022-11-20T07:16:51;20.88;;;15.95;;
57824;SDS011;43912;44.188;21.094;2022-11-20T07:19:17;19.88;;;15.88;;
57824;SDS011;43912;44.188;21.094;2022-11-20T07:21:43;23.85;;;17.23;;
57824;SDS011;43912;44.188;21.094;2022-11-20T07:24:09;24.15;;;19.17;;
57824;SDS011;43912;44.188;21.094;2022-11-20T07:26:35;27.48;;;22.92;;
57824;SDS011;43912;44.188;21.094;2022-11-20T07:29:01;24.30;;;19.40;;
57824;SDS011;43912;44.188;21.094;2022-11-20T07:31:28;24.80;;;20.23;;
57824;SDS011;43912;44.188;21.094;2022-11-20T07:33:54;28.33;;;22.30;;
57824;SDS011;43912;44.188;21.094;2022-11-20T07:36:21;28.05;;;21.58;;
57824;SDS011;43912;44.188;21.094;2022-11-20T07:38:47;30.48;;;24.70;;
57824;SDS011;43912;44.188;21.094;2022-11-20T07:41:13;34.47;;;28.67;;
57824;SDS011;43912;44.188;21.094;2022-11-20T07:43:39;31.77;;;25.90;;
57824;SDS011;43912;44.188;21.094;2022-11-20T07:46:05;33.85;;;26.13;;
57824;SDS011;43912;44.188;21.094;2022-11-20T07:48:31;37.88;;;31.92;;
57824;SDS011;43912;44.188;21.094;2022-11-20T07:50:57;37.63;;;31.98;;
57824;SDS011;43912;44.188;21.094;2022-11-20T07:53:23;38.40;;;31.00;;
57824;SDS011;43912;44.188;21.094;2022-11-20T07:55:49;36.30;;;27.77;;
57824;SDS011;43912;44.188;21.094;2022-11-20T07:58:19;38.20;;;27.80;;
57824;SDS011;43912;44.188;21.094;2022-11-20T08:00:45;38.83;;;28.45;;
57824;SDS011;43912;44.188;21.094;2022-11-20T08:03:11;40.53;;;29.48;;
57824;SDS011;43912;44.188;21.094;2022-11-20T08:05:38;43.45;;;31.95;;
57824;SDS011;43912;44.188;21.094;2022-11-20T08:08:04;48.33;;;35.88;;
57824;SDS011;43912;44.188;21.094;2022-11-20T08:10:31;43.85;;;32.05;;
57824;SDS011;43912;44.188;21.094;2022-11-20T08:12:57;44.50;;;32.70;;
57824;SDS011;43912;44.188;21.094;2022-11-20T08:15:47;44.85;;;33.33;;
57824;SDS011;43912;44.188;21.094;2022-11-20T08:18:13;50.08;;;33.33;;
57824;SDS011;43912;44.188;21.094;2022-11-20T08:20:39;38.17;;;30.17;;
57824;SDS011;43912;44.188;21.094;2022-11-20T08:23:06;76.68;;;68.53;;
57824;SDS011;43912;44.188;21.094;2022-11-20T08:25:33;56.67;;;50.47;;
57824;SDS011;43912;44.188;21.094;2022-11-20T08:27:59;49.38;;;42.08;;
57824;SDS011;43912;44.188;21.094;2022-11-20T08:30:26;33.72;;;26.55;;
57824;SDS011;43912;44.188;21.094;2022-11-20T08:32:52;36.95;;;28.98;;
57824;SDS011;43912;44.188;21.094;2022-11-20T08:35:19;32.25;;;24.73;;
57824;SDS011;43912;44.188;21.094;2022-11-20T08:37:46;30.45;;;24.48;;
57824;SDS011;43912;44.188;21.094;2022-11-20T08:40:12;39.63;;;28.30;;
57824;SDS011;43912;44.188;21.094;2022-11-20T08:42:45;29.25;;;22.55;;
57824;SDS011;43912;44.188;21.094;2022-11-20T08:45:12;32.70;;;25.35;;
57824;SDS011;43912;44.188;21.094;2022-11-20T08:47:38;29.90;;;24.02;;
57824;SDS011;43912;44.188;21.094;2022-11-20T08:50:04;32.88;;;27.02;;
57824;SDS011;43912;44.188;21.094;2022-11-20T08:52:30;37.60;;;29.75;;
57824;SDS011;43912;44.188;21.094;2022-11-20T08:54:56;33.95;;;27.65;;
57824;SDS011;43912;44.188;21.094;2022-11-20T08:57:23;28.35;;;23.27;;
57824;SDS011;43912;44.188;21.094;2022-11-20T08:59:49;26.67;;;19.83;;
57824;SDS011;43912;44.188;21.094;2022-11-20T09:02:15;27.20;;;20.25;;
57824;SDS011;43912;44.188;21.094;2022-11-20T09:04:41;29.58;;;22.92;;
57824;SDS011;43912;44.188;21.094;2022-11-20T09:07:07;32.13;;;24.08;;
57824;SDS011;43912;44.188;21.094;2022-11-20T09:09:33;33.55;;;25.23;;
57824;SDS011;43912;44.188;21.094;2022-11-20T09:11:59;29.77;;;23.70;;
57824;SDS011;43912;44.188;21.094;2022-11-20T09:14:25;29.35;;;25.08;;
57824;SDS011;43912;44.188;21.094;2022-11-20T09:16:54;25.00;;;21.23;;
57824;SDS011;43912;44.188;21.094;2022-11-20T09:19:20;28.35;;;22.30;;
57824;SDS011;43912;44.188;21.094;2022-11-20T09:21:46;28.30;;;23.92;;
57824;SDS011;43912;44.188;21.094;2022-11-20T09:24:12;28.52;;;24.08;;
57824;SDS011;43912;44.188;21.094;2022-11-20T09:26:38;26.67;;;22.80;;
57824;SDS011;43912;44.188;21.094;2022-11-20T09:29:05;25.77;;;20.42;;
57824;SDS011;43912;44.188;21.094;2022-11-20T09:31:31;29.33;;;23.80;;
57824;SDS011;43912;44.188;21.094;2022-11-20T09:33:57;29.95;;;24.00;;
57824;SDS011;43912;44.188;21.094;2022-11-20T09:36:23;26.92;;;21.73;;
57824;SDS011;43912;44.188;21.094;2022-11-20T09:38:49;28.42;;;21.90;;
57824;SDS011;43912;44.188;21.094;2022-11-20T09:52:00;28.80;;;22.10;;
57824;SDS011;43912;44.188;21.094;2022-11-20T09:54:30;32.60;;;29.17;;
57824;SDS011;43912;44.188;21.094;2022-11-20T09:56:59;32.08;;;28.52;;
57824;SDS011;43912;44.188;21.094;2022-11-20T10:04:47;36.20;;;31.70;;
57824;SDS011;43912;44.188;21.094;2022-11-20T10:07:20;30.42;;;26.55;;
57824;SDS011;43912;44.188;21.094;2022-11-20T10:09:51;29.25;;;25.13;;
57824;SDS011;43912;44.188;21.094;2022-11-20T10:17:54;25.45;;;21.73;;
57824;SDS011;43912;44.188;21.094;2022-11-20T10:25:02;28.67;;;23.95;;
57824;SDS011;43912;44.188;21.094;2022-11-20T10:28:06;30.13;;;24.33;;
57824;SDS011;43912;44.188;21.094;2022-11-20T10:30:25;39.67;;;32.47;;
57824;SDS011;43912;44.188;21.094;2022-11-20T10:32:54;44.20;;;34.35;;
57824;SDS011;43912;44.188;21.094;2022-11-20T10:35:23;31.70;;;26.40;;
57824;SDS011;43912;44.188;21.094;2022-11-20T10:37:53;30.65;;;25.52;;
57824;SDS011;43912;44.188;21.094;2022-11-20T10:40:22;34.58;;;27.27;;
57824;SDS011;43912;44.188;21.094;2022-11-20T10:42:51;27.48;;;23.55;;
57824;SDS011;43912;44.188;21.094;2022-11-20T10:48:01;34.08;;;25.52;;
57824;SDS011;43912;44.188;21.094;2022-11-20T10:50:34;31.70;;;25.38;;
57824;SDS011;43912;44.188;21.094;2022-11-20T10:53:06;32.17;;;26.92;;
57824;SDS011;43912;44.188;21.094;2022-11-20T10:58:11;79.68;;;71.32;;
57824;SDS011;43912;44.188;21.094;2022-11-20T11:00:38;36.10;;;31.20;;
57824;SDS011;43912;44.188;21.094;2022-11-20T11:03:18;35.60;;;30.65;;
57824;SDS011;43912;44.188;21.094;2022-11-20T11:08:32;37.97;;;32.03;;
57824;SDS011;43912;44.188;21.094;2022-11-20T11:11:00;43.38;;;33.90;;
57824;SDS011;43912;44.188;21.094;2022-11-20T11:13:28;44.72;;;35.30;;
57824;SDS011;43912;44.188;21.094;2022-11-20T11:15:54;41.25;;;33.00;;
57824;SDS011;43912;44.188;21.094;2022-11-20T11:18:28;42.42;;;34.63;;
57824;SDS011;43912;44.188;21.094;2022-11-20T11:20:59;40.58;;;33.45;;
57824;SDS011;43912;44.188;21.094;2022-11-20T11:25:58;45.50;;;35.70;;
57824;SDS011;43912;44.188;21.094;2022-11-20T11:28:25;44.17;;;35.03;;
57824;SDS011;43912;44.188;21.094;2022-11-20T11:30:54;46.63;;;39.08;;
57824;SDS011;43912;44.188;21.094;2022-11-20T11:33:25;45.47;;;34.97;;
57824;SDS011;43912;44.188;21.094;2022-11-20T11:35:52;56.45;;;40.05;;
57824;SDS011;43912;44.188;21.094;2022-11-20T11:38:38;54.63;;;45.58;;
57824;SDS011;43912;44.188;21.094;2022-11-20T11:41:06;44.50;;;34.05;;
57824;SDS011;43912;44.188;21.094;2022-11-20T11:43:35;46.63;;;34.88;;
57824;SDS011;43912;44.188;21.094;2022-11-20T11:46:33;45.95;;;35.55;;
57824;SDS011;43912;44.188;21.094;2022-11-20T11:49:01;45.20;;;33.88;;
57824;SDS011;43912;44.188;21.094;2022-11-20T11:52:12;46.58;;;37.20;;
57824;SDS011;43912;44.188;21.094;2022-11-20T11:54:51;40.28;;;32.28;;
57824;SDS011;43912;44.188;21.094;2022-11-20T12:00:12;41.50;;;32.00;;
57824;SDS011;43912;44.188;21.094;2022-11-20T12:05:30;40.97;;;35.38;;
57824;SDS011;43912;44.188;21.094;2022-11-20T12:11:23;40.50;;;32.88;;
57824;SDS011;43912;44.188;21.094;2022-11-20T12:13:54;36.60;;;30.60;;
57824;SDS011;43912;44.188;21.094;2022-11-20T12:16:24;38.40;;;31.25;;
57824;SDS011;43912;44.188;21.094;2022-11-20T12:18:51;36.78;;;29.92;;
57824;SDS011;43912;44.188;21.094;2022-11-20T12:21:19;40.25;;;34.28;;
57824;SDS011;43912;44.188;21.094;2022-11-20T12:26:42;102.45;;;76.30;;
57824;SDS011;43912;44.188;21.094;2022-11-20T12:34:25;46.90;;;37.72;;
57824;SDS011;43912;44.188;21.094;2022-11-20T12:39:41;37.30;;;28.45;;
57824;SDS011;43912;44.188;21.094;2022-11-20T12:55:09;39.45;;;33.72;;
57824;SDS011;43912;44.188;21.094;2022-11-20T12:57:45;39.78;;;31.08;;
57824;SDS011;43912;44.188;21.094;2022-11-20T13:00:23;38.78;;;31.85;;
57824;SDS011;43912;44.188;21.094;2022-11-20T13:05:19;41.15;;;32.17;;
57824;SDS011;43912;44.188;21.094;2022-11-20T13:07:47;39.30;;;32.65;;
57824;SDS011;43912;44.188;21.094;2022-11-20T13:10:15;43.65;;;33.90;;
57824;SDS011;43912;44.188;21.094;2022-11-20T13:12:45;40.13;;;31.40;;
57824;SDS011;43912;44.188;21.094;2022-11-20T13:17:50;42.15;;;33.72;;
57824;SDS011;43912;44.188;21.094;2022-11-20T13:22:45;40.20;;;31.65;;
57824;SDS011;43912;44.188;21.094;2022-11-20T13:25:24;40.47;;;32.63;;
57824;SDS011;43912;44.188;21.094;2022-11-20T13:27:51;35.78;;;28.38;;
57824;SDS011;43912;44.188;21.094;2022-11-20T13:30:18;37.65;;;29.27;;
57824;SDS011;43912;44.188;21.094;2022-11-20T13:32:55;39.53;;;30.63;;
57824;SDS011;43912;44.188;21.094;2022-11-20T13:35:26;39.28;;;32.22;;
57824;SDS011;43912;44.188;21.094;2022-11-20T13:37:59;39.25;;;30.55;;
57824;SDS011;43912;44.188;21.094;2022-11-20T13:40:26;36.10;;;27.77;;
57824;SDS011;43912;44.188;21.094;2022-11-20T13:45:37;42.80;;;29.80;;
57824;SDS011;43912;44.188;21.094;2022-11-20T13:48:22;35.05;;;26.95;;
57824;SDS011;43912;44.188;21.094;2022-11-20T13:50:58;37.67;;;29.02;;
57824;SDS011;43912;44.188;21.094;2022-11-20T13:56:02;34.05;;;25.73;;
57824;SDS011;43912;44.188;21.094;2022-11-20T13:58:44;34.00;;;25.45;;
57824;SDS011;43912;44.188;21.094;2022-11-20T14:01:20;28.95;;;24.02;;
57824;SDS011;43912;44.188;21.094;2022-11-20T14:03:47;32.55;;;25.45;;
57824;SDS011;43912;44.188;21.094;2022-11-20T14:06:29;34.67;;;28.42;;
57824;SDS011;43912;44.188;21.094;2022-11-20T14:08:56;36.20;;;26.77;;
57824;SDS011;43912;44.188;21.094;2022-11-20T14:11:24;31.10;;;24.50;;
57824;SDS011;43912;44.188;21.094;2022-11-20T14:16:20;26.25;;;21.00;;
57824;SDS011;43912;44.188;21.094;2022-11-20T14:18:46;28.23;;;22.27;;
57824;SDS011;43912;44.188;21.094;2022-11-20T14:21:20;25.92;;;21.23;;
57824;SDS011;43912;44.188;21.094;2022-11-20T14:23:47;30.30;;;24.27;;
57824;SDS011;43912;44.188;21.094;2022-11-20T14:26:14;32.72;;;25.20;;
57824;SDS011;43912;44.188;21.094;2022-11-20T14:28:42;31.63;;;22.92;;
57824;SDS011;43912;44.188;21.094;2022-11-20T14:31:10;29.20;;;22.67;;
57824;SDS011;43912;44.188;21.094;2022-11-20T14:33:42;31.23;;;21.95;;
57824;SDS011;43912;44.188;21.094;2022-11-20T14:36:15;34.72;;;26.33;;
57824;SDS011;43912;44.188;21.094;2022-11-20T14:38:42;33.85;;;25.15;;
57824;SDS011;43912;44.188;21.094;2022-11-20T14:41:08;33.88;;;27.60;;
57824;SDS011;43912;44.188;21.094;2022-11-20T14:43:35;35.67;;;26.33;;
57824;SDS011;43912;44.188;21.094;2022-11-20T14:46:07;36.05;;;27.02;;
57824;SDS011;43912;44.188;21.094;2022-11-20T14:48:35;38.13;;;30.15;;
57824;SDS011;43912;44.188;21.094;2022-11-20T14:51:03;34.80;;;26.67;;
57824;SDS011;43912;44.188;21.094;2022-11-20T14:53:29;42.42;;;33.35;;
57824;SDS011;43912;44.188;21.094;2022-11-20T14:55:59;30.48;;;25.15;;
57824;SDS011;43912;44.188;21.094;2022-11-20T14:58:28;30.10;;;23.08;;
57824;SDS011;43912;44.188;21.094;2022-11-20T15:01:14;26.42;;;20.05;;
57824;SDS011;43912;44.188;21.094;2022-11-20T15:03:46;27.63;;;21.45;;
57824;SDS011;43912;44.188;21.094;2022-11-20T15:06:12;28.30;;;21.27;;
57824;SDS011;43912;44.188;21.094;2022-11-20T15:08:38;29.40;;;22.13;;
57824;SDS011;43912;44.188;21.094;2022-11-20T15:11:14;25.05;;;18.50;;
57824;SDS011;43912;44.188;21.094;2022-11-20T15:13:42;27.92;;;20.10;;
57824;SDS011;43912;44.188;21.094;2022-11-20T15:16:12;28.65;;;21.02;;
57824;SDS011;43912;44.188;21.094;2022-11-20T15:18:40;28.25;;;21.17;;
57824;SDS011;43912;44.188;21.094;2022-11-20T15:21:13;27.55;;;19.10;;
57824;SDS011;43912;44.188;21.094;2022-11-20T15:23:40;27.92;;;18.85;;
57824;SDS011;43912;44.188;21.094;2022-11-20T15:26:06;26.20;;;17.95;;
57824;SDS011;43912;44.188;21.094;2022-11-20T15:28:34;24.70;;;19.58;;
57824;SDS011;43912;44.188;21.094;2022-11-20T15:31:02;27.23;;;19.83;;
57824;SDS011;43912;44.188;21.094;2022-11-20T15:33:28;32.25;;;26.05;;
57824;SDS011;43912;44.188;21.094;2022-11-20T15:35:54;31.13;;;24.05;;
57824;SDS011;43912;44.188;21.094;2022-11-20T15:38:20;40.13;;;28.88;;
57824;SDS011;43912;44.188;21.094;2022-11-20T15:40:46;35.83;;;27.27;;
57824;SDS011;43912;44.188;21.094;2022-11-20T15:43:13;31.20;;;23.83;;
57824;SDS011;43912;44.188;21.094;2022-11-20T15:45:43;39.28;;;30.85;;